Cleveland, Ohio
Traffic Map
Current Weather Conditions
Cleveland, Ohio
Overcast
Overcast
16°
Feels Like: 16°
Wind Chill: 16° Ceiling: 3300
Heat Index: 16° Visibility: 10mi
Dew Point: 11° Wind: 8mph
Humidity: 72% Direction: 170° (S)
Pressure: 29.79in Gusts: 0mph
Raw Report DataKBKL 222353Z 17007KT 10SM OVC033 16/11 A2979 RMK AO2 SLP088 T01610111 10178 20156 55003
Traffic Incident Summary
Active as of:
Severity:
Category:
InformationThere was an issue retrieving the traffic information for this location. Please try a different location or try again shortly.
Advertisements
Track Severe Weather on mobile